sensor_id;sensor_type;location;lat;lon;timestamp;temperature;humidity
12039;DHT22;6080;48.818;9.526;2022-08-21T00:00:10;15.80;99.90
12039;DHT22;6080;48.818;9.526;2022-08-21T00:02:36;15.80;99.90
12039;DHT22;6080;48.818;9.526;2022-08-21T00:05:03;15.80;99.90
12039;DHT22;6080;48.818;9.526;2022-08-21T00:07:29;15.80;99.90
12039;DHT22;6080;48.818;9.526;2022-08-21T00:09:55;15.80;99.90
12039;DHT22;6080;48.818;9.526;2022-08-21T00:12:21;15.80;99.90
12039;DHT22;6080;48.818;9.526;2022-08-21T00:14:47;15.80;99.90
12039;DHT22;6080;48.818;9.526;2022-08-21T00:17:13;15.90;99.90
12039;DHT22;6080;48.818;9.526;2022-08-21T00:19:39;15.80;99.90
12039;DHT22;6080;48.818;9.526;2022-08-21T00:22:05;15.80;99.90
12039;DHT22;6080;48.818;9.526;2022-08-21T00:24:31;15.80;99.90
12039;DHT22;6080;48.818;9.526;2022-08-21T00:26:58;15.70;99.90
12039;DHT22;6080;48.818;9.526;2022-08-21T00:29:24;15.70;99.90
12039;DHT22;6080;48.818;9.526;2022-08-21T00:31:50;15.70;99.90
12039;DHT22;6080;48.818;9.526;2022-08-21T00:34:16;15.60;99.90
12039;DHT22;6080;48.818;9.526;2022-08-21T00:36:42;15.60;99.90
12039;DHT22;6080;48.818;9.526;2022-08-21T00:39:09;15.70;99.90
12039;DHT22;6080;48.818;9.526;2022-08-21T00:41:36;15.60;99.90
12039;DHT22;6080;48.818;9.526;2022-08-21T00:44:04;15.60;99.90
12039;DHT22;6080;48.818;9.526;2022-08-21T00:46:31;15.50;99.90
12039;DHT22;6080;48.818;9.526;2022-08-21T00:48:57;15.50;99.90
12039;DHT22;6080;48.818;9.526;2022-08-21T00:51:38;15.50;99.90
12039;DHT22;6080;48.818;9.526;2022-08-21T00:54:05;15.50;99.90
12039;DHT22;6080;48.818;9.526;2022-08-21T00:56:32;15.50;99.90
12039;DHT22;6080;48.818;9.526;2022-08-21T00:58:59;15.40;99.90
12039;DHT22;6080;48.818;9.526;2022-08-21T01:01:26;15.40;99.90
12039;DHT22;6080;48.818;9.526;2022-08-21T01:03:53;15.40;99.90
12039;DHT22;6080;48.818;9.526;2022-08-21T01:06:19;15.40;99.90
12039;DHT22;6080;48.818;9.526;2022-08-21T01:08:46;15.40;99.90
12039;DHT22;6080;48.818;9.526;2022-08-21T01:11:14;15.40;99.90
12039;DHT22;6080;48.818;9.526;2022-08-21T01:13:40;15.30;99.90
12039;DHT22;6080;48.818;9.526;2022-08-21T01:16:10;15.30;99.90
12039;DHT22;6080;48.818;9.526;2022-08-21T01:18:36;15.30;99.90
12039;DHT22;6080;48.818;9.526;2022-08-21T01:21:11;15.30;99.90
12039;DHT22;6080;48.818;9.526;2022-08-21T01:23:40;15.20;99.90
12039;DHT22;6080;48.818;9.526;2022-08-21T01:26:07;15.10;99.90
12039;DHT22;6080;48.818;9.526;2022-08-21T01:28:40;15.10;99.90
12039;DHT22;6080;48.818;9.526;2022-08-21T01:31:09;15.20;99.90
12039;DHT22;6080;48.818;9.526;2022-08-21T01:33:37;15.20;99.90
12039;DHT22;6080;48.818;9.526;2022-08-21T01:36:03;15.20;99.90
12039;DHT22;6080;48.818;9.526;2022-08-21T01:38:29;15.10;99.90
12039;DHT22;6080;48.818;9.526;2022-08-21T01:40:56;15.10;99.90
12039;DHT22;6080;48.818;9.526;2022-08-21T01:43:22;15.10;99.90
12039;DHT22;6080;48.818;9.526;2022-08-21T01:45:48;15.00;99.90
12039;DHT22;6080;48.818;9.526;2022-08-21T01:48:14;15.00;99.90
12039;DHT22;6080;48.818;9.526;2022-08-21T01:50:40;15.00;99.90
12039;DHT22;6080;48.818;9.526;2022-08-21T01:53:06;15.00;99.90
12039;DHT22;6080;48.818;9.526;2022-08-21T01:55:32;14.90;99.90
12039;DHT22;6080;48.818;9.526;2022-08-21T01:57:59;14.90;99.90
12039;DHT22;6080;48.818;9.526;2022-08-21T02:00:25;14.90;99.90
12039;DHT22;6080;48.818;9.526;2022-08-21T02:02:51;14.80;99.90
12039;DHT22;6080;48.818;9.526;2022-08-21T02:05:18;14.80;99.90
12039;DHT22;6080;48.818;9.526;2022-08-21T02:07:47;14.80;99.90
12039;DHT22;6080;48.818;9.526;2022-08-21T02:10:18;14.80;99.90
12039;DHT22;6080;48.818;9.526;2022-08-21T02:12:44;14.70;99.90
12039;DHT22;6080;48.818;9.526;2022-08-21T02:15:10;14.70;99.90
12039;DHT22;6080;48.818;9.526;2022-08-21T02:17:38;14.70;99.90
12039;DHT22;6080;48.818;9.526;2022-08-21T02:20:06;14.70;99.90
12039;DHT22;6080;48.818;9.526;2022-08-21T02:22:32;14.60;99.90
12039;DHT22;6080;48.818;9.526;2022-08-21T02:24:57;14.60;99.90
12039;DHT22;6080;48.818;9.526;2022-08-21T02:27:24;14.60;99.90
12039;DHT22;6080;48.818;9.526;2022-08-21T02:29:50;14.60;99.90
12039;DHT22;6080;48.818;9.526;2022-08-21T02:32:16;14.60;99.90
12039;DHT22;6080;48.818;9.526;2022-08-21T02:34:42;14.60;99.90
12039;DHT22;6080;48.818;9.526;2022-08-21T02:37:07;14.60;99.90
12039;DHT22;6080;48.818;9.526;2022-08-21T02:39:34;14.60;99.90
12039;DHT22;6080;48.818;9.526;2022-08-21T02:41:59;14.60;99.90
12039;DHT22;6080;48.818;9.526;2022-08-21T02:44:25;14.60;99.90
12039;DHT22;6080;48.818;9.526;2022-08-21T02:46:51;14.60;99.90
12039;DHT22;6080;48.818;9.526;2022-08-21T02:49:17;14.60;99.90
12039;DHT22;6080;48.818;9.526;2022-08-21T02:51:43;14.60;99.90
12039;DHT22;6080;48.818;9.526;2022-08-21T02:54:08;14.60;99.90
12039;DHT22;6080;48.818;9.526;2022-08-21T02:56:34;14.60;99.90
12039;DHT22;6080;48.818;9.526;2022-08-21T02:59:00;14.50;99.90
12039;DHT22;6080;48.818;9.526;2022-08-21T03:01:26;14.50;99.90
12039;DHT22;6080;48.818;9.526;2022-08-21T03:03:52;14.50;99.90
12039;DHT22;6080;48.818;9.526;2022-08-21T03:06:21;14.50;99.90
12039;DHT22;6080;48.818;9.526;2022-08-21T03:08:47;14.50;99.90
12039;DHT22;6080;48.818;9.526;2022-08-21T03:11:14;14.50;99.90
12039;DHT22;6080;48.818;9.526;2022-08-21T03:13:40;14.50;99.90
12039;DHT22;6080;48.818;9.526;2022-08-21T03:16:06;14.50;99.90
12039;DHT22;6080;48.818;9.526;2022-08-21T03:18:33;14.40;99.90
12039;DHT22;6080;48.818;9.526;2022-08-21T03:20:59;14.40;99.90
12039;DHT22;6080;48.818;9.526;2022-08-21T03:23:24;14.40;99.90
12039;DHT22;6080;48.818;9.526;2022-08-21T03:25:50;14.40;99.90
12039;DHT22;6080;48.818;9.526;2022-08-21T03:28:20;14.40;99.90
12039;DHT22;6080;48.818;9.526;2022-08-21T03:30:49;14.40;99.90
12039;DHT22;6080;48.818;9.526;2022-08-21T03:33:15;14.40;99.90
12039;DHT22;6080;48.818;9.526;2022-08-21T03:35:43;14.30;99.90
12039;DHT22;6080;48.818;9.526;2022-08-21T03:38:09;14.30;99.90
12039;DHT22;6080;48.818;9.526;2022-08-21T03:40:35;14.30;99.90
12039;DHT22;6080;48.818;9.526;2022-08-21T03:43:01;14.40;99.90
12039;DHT22;6080;48.818;9.526;2022-08-21T03:45:27;14.40;99.90
12039;DHT22;6080;48.818;9.526;2022-08-21T03:48:00;14.40;99.90
12039;DHT22;6080;48.818;9.526;2022-08-21T03:50:30;14.40;99.90
12039;DHT22;6080;48.818;9.526;2022-08-21T03:52:56;14.40;99.90
12039;DHT22;6080;48.818;9.526;2022-08-21T03:55:23;14.30;99.90
12039;DHT22;6080;48.818;9.526;2022-08-21T03:57:49;14.30;99.90
12039;DHT22;6080;48.818;9.526;2022-08-21T04:00:16;14.30;99.90
12039;DHT22;6080;48.818;9.526;2022-08-21T04:02:42;14.30;99.90
12039;DHT22;6080;48.818;9.526;2022-08-21T04:05:10;14.20;99.90
12039;DHT22;6080;48.818;9.526;2022-08-21T04:07:36;14.00;99.90
12039;DHT22;6080;48.818;9.526;2022-08-21T04:10:05;13.80;99.90
12039;DHT22;6080;48.818;9.526;2022-08-21T04:12:31;13.70;99.90
12039;DHT22;6080;48.818;9.526;2022-08-21T04:14:57;13.60;99.90
12039;DHT22;6080;48.818;9.526;2022-08-21T04:17:23;13.60;99.90
12039;DHT22;6080;48.818;9.526;2022-08-21T04:19:48;13.70;99.90
12039;DHT22;6080;48.818;9.526;2022-08-21T04:22:15;13.80;99.90
12039;DHT22;6080;48.818;9.526;2022-08-21T04:24:41;13.80;99.90
12039;DHT22;6080;48.818;9.526;2022-08-21T04:27:07;13.90;99.90
12039;DHT22;6080;48.818;9.526;2022-08-21T04:29:32;13.90;99.90
12039;DHT22;6080;48.818;9.526;2022-08-21T04:31:58;13.90;99.90
12039;DHT22;6080;48.818;9.526;2022-08-21T04:34:25;13.90;99.90
12039;DHT22;6080;48.818;9.526;2022-08-21T04:36:50;13.90;99.90
12039;DHT22;6080;48.818;9.526;2022-08-21T04:39:16;13.90;99.90
12039;DHT22;6080;48.818;9.526;2022-08-21T04:41:42;13.80;99.90
12039;DHT22;6080;48.818;9.526;2022-08-21T04:44:08;13.80;99.90
12039;DHT22;6080;48.818;9.526;2022-08-21T04:46:34;13.90;99.90
12039;DHT22;6080;48.818;9.526;2022-08-21T04:49:01;13.90;99.90
12039;DHT22;6080;48.818;9.526;2022-08-21T04:51:33;14.00;99.90
12039;DHT22;6080;48.818;9.526;2022-08-21T04:54:16;14.00;99.90
12039;DHT22;6080;48.818;9.526;2022-08-21T04:56:47;14.00;99.90
12039;DHT22;6080;48.818;9.526;2022-08-21T04:59:21;14.00;99.90
12039;DHT22;6080;48.818;9.526;2022-08-21T05:01:48;14.00;99.90
12039;DHT22;6080;48.818;9.526;2022-08-21T05:04:17;14.00;99.90
12039;DHT22;6080;48.818;9.526;2022-08-21T05:06:46;14.00;99.90
12039;DHT22;6080;48.818;9.526;2022-08-21T05:09:15;14.00;99.90
12039;DHT22;6080;48.818;9.526;2022-08-21T05:11:42;14.00;99.90
12039;DHT22;6080;48.818;9.526;2022-08-21T05:14:08;14.00;99.90
12039;DHT22;6080;48.818;9.526;2022-08-21T05:16:34;14.00;99.90
12039;DHT22;6080;48.818;9.526;2022-08-21T05:19:01;14.00;99.90
12039;DHT22;6080;48.818;9.526;2022-08-21T05:21:27;14.00;99.90
12039;DHT22;6080;48.818;9.526;2022-08-21T05:23:53;14.00;99.90
12039;DHT22;6080;48.818;9.526;2022-08-21T05:26:18;14.10;99.90
12039;DHT22;6080;48.818;9.526;2022-08-21T05:28:44;14.10;99.90
12039;DHT22;6080;48.818;9.526;2022-08-21T05:31:10;14.20;99.90
12039;DHT22;6080;48.818;9.526;2022-08-21T05:33:36;14.40;99.90
12039;DHT22;6080;48.818;9.526;2022-08-21T05:36:02;14.50;99.90
12039;DHT22;6080;48.818;9.526;2022-08-21T05:38:28;14.50;99.90
12039;DHT22;6080;48.818;9.526;2022-08-21T05:40:54;14.60;99.90
12039;DHT22;6080;48.818;9.526;2022-08-21T05:43:20;14.80;99.90
12039;DHT22;6080;48.818;9.526;2022-08-21T05:45:47;14.90;99.90
12039;DHT22;6080;48.818;9.526;2022-08-21T05:48:19;15.00;99.90
12039;DHT22;6080;48.818;9.526;2022-08-21T05:50:46;15.00;99.90
12039;DHT22;6080;48.818;9.526;2022-08-21T05:53:13;15.00;99.90
12039;DHT22;6080;48.818;9.526;2022-08-21T05:55:41;15.00;99.90
12039;DHT22;6080;48.818;9.526;2022-08-21T05:58:07;15.20;99.90
12039;DHT22;6080;48.818;9.526;2022-08-21T06:00:33;15.30;99.90
12039;DHT22;6080;48.818;9.526;2022-08-21T06:03:00;15.30;99.90
12039;DHT22;6080;48.818;9.526;2022-08-21T06:05:26;15.40;99.90
12039;DHT22;6080;48.818;9.526;2022-08-21T06:07:52;15.60;99.90
12039;DHT22;6080;48.818;9.526;2022-08-21T06:10:18;15.70;99.90
12039;DHT22;6080;48.818;9.526;2022-08-21T06:12:44;15.90;99.90
12039;DHT22;6080;48.818;9.526;2022-08-21T06:15:10;16.00;99.90
12039;DHT22;6080;48.818;9.526;2022-08-21T06:17:36;16.10;99.90
12039;DHT22;6080;48.818;9.526;2022-08-21T06:20:03;16.10;99.90
12039;DHT22;6080;48.818;9.526;2022-08-21T06:22:29;16.20;99.90
12039;DHT22;6080;48.818;9.526;2022-08-21T06:24:55;16.40;99.90
12039;DHT22;6080;48.818;9.526;2022-08-21T06:27:21;16.60;99.90
12039;DHT22;6080;48.818;9.526;2022-08-21T06:29:47;16.80;99.90
12039;DHT22;6080;48.818;9.526;2022-08-21T06:32:13;16.80;99.90
12039;DHT22;6080;48.818;9.526;2022-08-21T06:34:40;17.50;99.90
12039;DHT22;6080;48.818;9.526;2022-08-21T06:37:06;18.20;99.90
12039;DHT22;6080;48.818;9.526;2022-08-21T06:39:33;18.90;99.90
12039;DHT22;6080;48.818;9.526;2022-08-21T06:42:00;19.70;99.90
12039;DHT22;6080;48.818;9.526;2022-08-21T06:44:26;20.30;99.90
12039;DHT22;6080;48.818;9.526;2022-08-21T06:46:52;20.80;99.90
12039;DHT22;6080;48.818;9.526;2022-08-21T06:49:18;21.10;99.90
12039;DHT22;6080;48.818;9.526;2022-08-21T06:51:44;21.20;99.90
12039;DHT22;6080;48.818;9.526;2022-08-21T06:54:09;21.50;99.90
12039;DHT22;6080;48.818;9.526;2022-08-21T06:56:36;21.80;99.90
12039;DHT22;6080;48.818;9.526;2022-08-21T06:59:04;22.00;99.90
12039;DHT22;6080;48.818;9.526;2022-08-21T07:01:31;22.00;99.90
12039;DHT22;6080;48.818;9.526;2022-08-21T07:03:57;22.20;99.90
12039;DHT22;6080;48.818;9.526;2022-08-21T07:06:24;22.60;99.90
12039;DHT22;6080;48.818;9.526;2022-08-21T07:08:50;22.60;99.90
12039;DHT22;6080;48.818;9.526;2022-08-21T07:11:24;22.50;99.90
12039;DHT22;6080;48.818;9.526;2022-08-21T07:13:51;22.50;99.90
12039;DHT22;6080;48.818;9.526;2022-08-21T07:16:23;22.50;99.90
12039;DHT22;6080;48.818;9.526;2022-08-21T07:18:49;22.60;99.90
12039;DHT22;6080;48.818;9.526;2022-08-21T07:21:16;22.70;99.90
12039;DHT22;6080;48.818;9.526;2022-08-21T07:23:44;22.50;99.90
12039;DHT22;6080;48.818;9.526;2022-08-21T07:26:14;22.70;99.90
12039;DHT22;6080;48.818;9.526;2022-08-21T07:28:40;23.40;99.90
12039;DHT22;6080;48.818;9.526;2022-08-21T07:31:08;23.70;99.90
12039;DHT22;6080;48.818;9.526;2022-08-21T07:33:35;23.40;99.90
12039;DHT22;6080;48.818;9.526;2022-08-21T07:36:01;23.20;99.90
12039;DHT22;6080;48.818;9.526;2022-08-21T07:38:27;23.20;99.90
12039;DHT22;6080;48.818;9.526;2022-08-21T07:40:55;23.10;99.90
12039;DHT22;6080;48.818;9.526;2022-08-21T07:43:22;23.20;99.90
12039;DHT22;6080;48.818;9.526;2022-08-21T07:45:48;23.70;99.90
12039;DHT22;6080;48.818;9.526;2022-08-21T07:48:15;24.30;99.90
12039;DHT22;6080;48.818;9.526;2022-08-21T07:50:42;24.80;99.90
12039;DHT22;6080;48.818;9.526;2022-08-21T07:53:08;24.90;99.90
12039;DHT22;6080;48.818;9.526;2022-08-21T07:55:34;25.40;99.90
12039;DHT22;6080;48.818;9.526;2022-08-21T07:58:00;25.70;99.90
12039;DHT22;6080;48.818;9.526;2022-08-21T08:00:28;25.80;99.90
12039;DHT22;6080;48.818;9.526;2022-08-21T08:02:54;25.70;99.90
12039;DHT22;6080;48.818;9.526;2022-08-21T08:05:24;26.00;99.90
12039;DHT22;6080;48.818;9.526;2022-08-21T08:07:50;26.30;99.90
12039;DHT22;6080;48.818;9.526;2022-08-21T08:10:17;26.40;99.90
12039;DHT22;6080;48.818;9.526;2022-08-21T08:12:44;26.60;99.90
12039;DHT22;6080;48.818;9.526;2022-08-21T08:15:17;26.50;99.90
12039;DHT22;6080;48.818;9.526;2022-08-21T08:17:44;26.80;99.90
12039;DHT22;6080;48.818;9.526;2022-08-21T08:20:11;26.70;99.90
12039;DHT22;6080;48.818;9.526;2022-08-21T08:22:38;26.60;99.90
12039;DHT22;6080;48.818;9.526;2022-08-21T08:25:06;26.70;99.90
12039;DHT22;6080;48.818;9.526;2022-08-21T08:27:33;26.90;99.90
12039;DHT22;6080;48.818;9.526;2022-08-21T08:29:58;27.00;99.90
12039;DHT22;6080;48.818;9.526;2022-08-21T08:32:24;27.20;99.90
12039;DHT22;6080;48.818;9.526;2022-08-21T08:34:50;27.10;99.90
12039;DHT22;6080;48.818;9.526;2022-08-21T08:37:19;27.20;99.90
12039;DHT22;6080;48.818;9.526;2022-08-21T08:39:45;27.30;99.90
12039;DHT22;6080;48.818;9.526;2022-08-21T08:42:17;27.30;99.90
12039;DHT22;6080;48.818;9.526;2022-08-21T08:44:45;27.50;99.20
12039;DHT22;6080;48.818;9.526;2022-08-21T08:47:14;27.90;97.40
12039;DHT22;6080;48.818;9.526;2022-08-21T08:49:58;28.10;97.80
12039;DHT22;6080;48.818;9.526;2022-08-21T08:52:29;28.40;96.30
12039;DHT22;6080;48.818;9.526;2022-08-21T08:55:07;28.50;94.50
12039;DHT22;6080;48.818;9.526;2022-08-21T08:57:34;28.20;93.90
12039;DHT22;6080;48.818;9.526;2022-08-21T09:00:06;28.30;93.70
12039;DHT22;6080;48.818;9.526;2022-08-21T09:02:33;27.80;93.60
12039;DHT22;6080;48.818;9.526;2022-08-21T09:05:00;27.80;93.90
12039;DHT22;6080;48.818;9.526;2022-08-21T09:07:37;27.50;93.70
12039;DHT22;6080;48.818;9.526;2022-08-21T09:18:45;28.50;91.80
12039;DHT22;6080;48.818;9.526;2022-08-21T09:27:17;29.50;90.40
12039;DHT22;6080;48.818;9.526;2022-08-21T09:29:45;29.50;91.40
12039;DHT22;6080;48.818;9.526;2022-08-21T09:32:30;29.40;90.60
12039;DHT22;6080;48.818;9.526;2022-08-21T09:34:59;29.60;90.20
12039;DHT22;6080;48.818;9.526;2022-08-21T09:37:27;29.60;90.50
12039;DHT22;6080;48.818;9.526;2022-08-21T09:39:55;30.20;87.40
12039;DHT22;6080;48.818;9.526;2022-08-21T09:42:28;30.40;83.20
12039;DHT22;6080;48.818;9.526;2022-08-21T09:45:13;29.80;84.20
12039;DHT22;6080;48.818;9.526;2022-08-21T09:47:40;29.40;85.00
12039;DHT22;6080;48.818;9.526;2022-08-21T09:50:08;29.60;86.80
12039;DHT22;6080;48.818;9.526;2022-08-21T09:52:43;29.90;85.60
12039;DHT22;6080;48.818;9.526;2022-08-21T09:55:16;30.20;83.90
12039;DHT22;6080;48.818;9.526;2022-08-21T09:58:02;30.30;83.40
12039;DHT22;6080;48.818;9.526;2022-08-21T10:00:31;30.30;84.40
12039;DHT22;6080;48.818;9.526;2022-08-21T10:03:17;30.50;84.20
12039;DHT22;6080;48.818;9.526;2022-08-21T10:05:57;30.80;82.00
12039;DHT22;6080;48.818;9.526;2022-08-21T10:08:27;31.40;79.80
12039;DHT22;6080;48.818;9.526;2022-08-21T10:11:02;31.70;81.50
12039;DHT22;6080;48.818;9.526;2022-08-21T10:13:52;31.90;77.00
12039;DHT22;6080;48.818;9.526;2022-08-21T10:25:16;32.30;70.20
12039;DHT22;6080;48.818;9.526;2022-08-21T10:31:27;32.70;72.10
12039;DHT22;6080;48.818;9.526;2022-08-21T10:34:00;32.60;70.20
12039;DHT22;6080;48.818;9.526;2022-08-21T10:39:34;33.40;67.40
12039;DHT22;6080;48.818;9.526;2022-08-21T10:44:55;34.00;62.10
12039;DHT22;6080;48.818;9.526;2022-08-21T10:52:56;33.00;59.90
12039;DHT22;6080;48.818;9.526;2022-08-21T11:07:00;33.50;58.60
12039;DHT22;6080;48.818;9.526;2022-08-21T11:09:27;33.50;58.40
12039;DHT22;6080;48.818;9.526;2022-08-21T11:12:46;32.70;58.40
12039;DHT22;6080;48.818;9.526;2022-08-21T11:15:03;33.40;59.20
12039;DHT22;6080;48.818;9.526;2022-08-21T11:17:43;33.50;57.90
12039;DHT22;6080;48.818;9.526;2022-08-21T11:20:40;32.60;58.80
12039;DHT22;6080;48.818;9.526;2022-08-21T11:23:17;32.70;56.90
12039;DHT22;6080;48.818;9.526;2022-08-21T11:25:49;33.40;58.80
12039;DHT22;6080;48.818;9.526;2022-08-21T11:28:28;34.20;55.10
12039;DHT22;6080;48.818;9.526;2022-08-21T11:31:08;35.00;55.00
12039;DHT22;6080;48.818;9.526;2022-08-21T11:33:51;35.00;53.80
12039;DHT22;6080;48.818;9.526;2022-08-21T11:36:29;34.80;54.40
12039;DHT22;6080;48.818;9.526;2022-08-21T11:41:30;34.40;53.70
12039;DHT22;6080;48.818;9.526;2022-08-21T11:47:33;34.40;53.30
12039;DHT22;6080;48.818;9.526;2022-08-21T11:50:16;34.50;53.60
12039;DHT22;6080;48.818;9.526;2022-08-21T11:52:53;35.60;52.90
12039;DHT22;6080;48.818;9.526;2022-08-21T11:55:31;36.20;51.50
12039;DHT22;6080;48.818;9.526;2022-08-21T11:58:06;36.60;49.60
12039;DHT22;6080;48.818;9.526;2022-08-21T12:00:43;35.90;50.00
12039;DHT22;6080;48.818;9.526;2022-08-21T12:03:17;34.70;50.70
12039;DHT22;6080;48.818;9.526;2022-08-21T12:06:02;35.70;51.00
12039;DHT22;6080;48.818;9.526;2022-08-21T12:11:05;36.90;48.40
12039;DHT22;6080;48.818;9.526;2022-08-21T12:13:35;37.30;46.20
12039;DHT22;6080;48.818;9.526;2022-08-21T12:16:14;37.40;47.90
12039;DHT22;6080;48.818;9.526;2022-08-21T12:18:42;38.60;45.70
12039;DHT22;6080;48.818;9.526;2022-08-21T12:21:24;38.40;46.90
12039;DHT22;6080;48.818;9.526;2022-08-21T12:26:51;37.60;44.30
12039;DHT22;6080;48.818;9.526;2022-08-21T12:29:29;37.50;45.10
12039;DHT22;6080;48.818;9.526;2022-08-21T12:32:23;37.70;44.30
12039;DHT22;6080;48.818;9.526;2022-08-21T12:35:07;38.30;44.70
12039;DHT22;6080;48.818;9.526;2022-08-21T12:37:39;37.80;45.50
12039;DHT22;6080;48.818;9.526;2022-08-21T12:40:31;37.00;46.20
12039;DHT22;6080;48.818;9.526;2022-08-21T12:43:01;37.30;44.80
12039;DHT22;6080;48.818;9.526;2022-08-21T12:45:34;37.70;45.30
12039;DHT22;6080;48.818;9.526;2022-08-21T12:50:50;38.00;43.60
12039;DHT22;6080;48.818;9.526;2022-08-21T12:55:52;38.00;43.90
12039;DHT22;6080;48.818;9.526;2022-08-21T12:58:23;37.80;42.10
12039;DHT22;6080;48.818;9.526;2022-08-21T13:00:53;37.20;44.30
12039;DHT22;6080;48.818;9.526;2022-08-21T13:03:21;37.40;43.80
12039;DHT22;6080;48.818;9.526;2022-08-21T13:05:47;37.70;43.30
12039;DHT22;6080;48.818;9.526;2022-08-21T13:08:13;37.40;43.40
12039;DHT22;6080;48.818;9.526;2022-08-21T13:10:41;37.20;44.40
12039;DHT22;6080;48.818;9.526;2022-08-21T13:13:21;36.00;44.60
12039;DHT22;6080;48.818;9.526;2022-08-21T13:15:47;33.60;47.20
12039;DHT22;6080;48.818;9.526;2022-08-21T13:18:25;32.40;47.00
12039;DHT22;6080;48.818;9.526;2022-08-21T13:20:51;31.50;50.50
12039;DHT22;6080;48.818;9.526;2022-08-21T13:23:29;32.90;48.00
12039;DHT22;6080;48.818;9.526;2022-08-21T13:25:56;34.30;48.10
12039;DHT22;6080;48.818;9.526;2022-08-21T13:28:23;35.40;46.20
12039;DHT22;6080;48.818;9.526;2022-08-21T13:30:53;36.10;45.70
12039;DHT22;6080;48.818;9.526;2022-08-21T13:33:25;36.40;45.30
12039;DHT22;6080;48.818;9.526;2022-08-21T13:36:20;36.50;44.80
12039;DHT22;6080;48.818;9.526;2022-08-21T13:38:46;36.30;43.60
12039;DHT22;6080;48.818;9.526;2022-08-21T13:43:45;38.30;42.30
12039;DHT22;6080;48.818;9.526;2022-08-21T13:46:13;38.00;41.00
12039;DHT22;6080;48.818;9.526;2022-08-21T13:48:41;38.50;40.00
12039;DHT22;6080;48.818;9.526;2022-08-21T13:51:07;38.80;39.90
12039;DHT22;6080;48.818;9.526;2022-08-21T13:53:47;38.60;40.60
12039;DHT22;6080;48.818;9.526;2022-08-21T13:56:31;38.70;40.50
12039;DHT22;6080;48.818;9.526;2022-08-21T13:59:00;38.30;39.90
12039;DHT22;6080;48.818;9.526;2022-08-21T14:01:35;38.00;39.70
12039;DHT22;6080;48.818;9.526;2022-08-21T14:04:23;39.10;38.30
12039;DHT22;6080;48.818;9.526;2022-08-21T14:06:50;40.00;37.20
12039;DHT22;6080;48.818;9.526;2022-08-21T14:09:33;39.60;35.50
12039;DHT22;6080;48.818;9.526;2022-08-21T14:12:03;39.50;37.50
12039;DHT22;6080;48.818;9.526;2022-08-21T14:14:39;39.40;37.80
12039;DHT22;6080;48.818;9.526;2022-08-21T14:17:09;39.80;36.70
12039;DHT22;6080;48.818;9.526;2022-08-21T14:19:42;39.50;37.50
12039;DHT22;6080;48.818;9.526;2022-08-21T14:22:43;39.10;37.70
12039;DHT22;6080;48.818;9.526;2022-08-21T14:25:15;39.20;36.80
12039;DHT22;6080;48.818;9.526;2022-08-21T14:27:57;39.60;34.90
12039;DHT22;6080;48.818;9.526;2022-08-21T14:30:28;40.20;35.00
12039;DHT22;6080;48.818;9.526;2022-08-21T14:32:55;40.00;33.70
12039;DHT22;6080;48.818;9.526;2022-08-21T14:35:22;37.60;35.60
12039;DHT22;6080;48.818;9.526;2022-08-21T14:37:48;35.50;38.10
12039;DHT22;6080;48.818;9.526;2022-08-21T14:40:18;35.00;39.80
12039;DHT22;6080;48.818;9.526;2022-08-21T14:42:45;36.00;39.60
12039;DHT22;6080;48.818;9.526;2022-08-21T14:45:18;36.40;38.80
12039;DHT22;6080;48.818;9.526;2022-08-21T14:47:45;35.60;40.10
12039;DHT22;6080;48.818;9.526;2022-08-21T14:50:12;34.60;41.30
12039;DHT22;6080;48.818;9.526;2022-08-21T14:52:40;33.50;42.50
12039;DHT22;6080;48.818;9.526;2022-08-21T14:55:07;32.20;44.10
12039;DHT22;6080;48.818;9.526;2022-08-21T14:57:36;31.50;45.90
12039;DHT22;6080;48.818;9.526;2022-08-21T15:00:03;31.90;46.60
12039;DHT22;6080;48.818;9.526;2022-08-21T15:02:30;33.60;43.50
12039;DHT22;6080;48.818;9.526;2022-08-21T15:04:55;33.50;42.50
12039;DHT22;6080;48.818;9.526;2022-08-21T15:07:21;32.70;43.50
12039;DHT22;6080;48.818;9.526;2022-08-21T15:09:47;33.20;44.80
12039;DHT22;6080;48.818;9.526;2022-08-21T15:12:13;34.50;42.30
12039;DHT22;6080;48.818;9.526;2022-08-21T15:14:40;35.90;41.20
12039;DHT22;6080;48.818;9.526;2022-08-21T15:17:10;36.60;40.00
12039;DHT22;6080;48.818;9.526;2022-08-21T15:19:37;38.10;37.00
12039;DHT22;6080;48.818;9.526;2022-08-21T15:22:03;38.10;35.50
12039;DHT22;6080;48.818;9.526;2022-08-21T15:24:30;37.90;35.50
12039;DHT22;6080;48.818;9.526;2022-08-21T15:26:58;37.20;36.70
12039;DHT22;6080;48.818;9.526;2022-08-21T15:29:25;37.00;36.50
12039;DHT22;6080;48.818;9.526;2022-08-21T15:31:56;36.70;37.60
12039;DHT22;6080;48.818;9.526;2022-08-21T15:34:23;37.50;36.20
12039;DHT22;6080;48.818;9.526;2022-08-21T15:36:49;37.20;35.70
12039;DHT22;6080;48.818;9.526;2022-08-21T15:39:15;36.90;35.90
12039;DHT22;6080;48.818;9.526;2022-08-21T15:41:42;37.70;34.60
12039;DHT22;6080;48.818;9.526;2022-08-21T15:44:09;37.80;34.50
12039;DHT22;6080;48.818;9.526;2022-08-21T15:46:37;38.00;34.20
12039;DHT22;6080;48.818;9.526;2022-08-21T15:49:03;37.70;33.80
12039;DHT22;6080;48.818;9.526;2022-08-21T15:51:29;37.80;34.10
12039;DHT22;6080;48.818;9.526;2022-08-21T15:53:55;37.50;34.10
12039;DHT22;6080;48.818;9.526;2022-08-21T15:56:27;37.40;35.70
12039;DHT22;6080;48.818;9.526;2022-08-21T15:58:59;37.20;36.30
12039;DHT22;6080;48.818;9.526;2022-08-21T16:01:29;36.90;35.90
12039;DHT22;6080;48.818;9.526;2022-08-21T16:03:55;36.70;37.00
12039;DHT22;6080;48.818;9.526;2022-08-21T16:06:21;36.70;37.00
12039;DHT22;6080;48.818;9.526;2022-08-21T16:08:47;36.40;36.30
12039;DHT22;6080;48.818;9.526;2022-08-21T16:11:14;36.10;36.70
12039;DHT22;6080;48.818;9.526;2022-08-21T16:13:42;35.60;36.80
12039;DHT22;6080;48.818;9.526;2022-08-21T16:16:16;34.60;37.90
12039;DHT22;6080;48.818;9.526;2022-08-21T16:18:42;33.70;40.10
12039;DHT22;6080;48.818;9.526;2022-08-21T16:21:08;32.70;41.30
12039;DHT22;6080;48.818;9.526;2022-08-21T16:23:35;31.70;43.20
12039;DHT22;6080;48.818;9.526;2022-08-21T16:26:03;30.80;43.70
12039;DHT22;6080;48.818;9.526;2022-08-21T16:28:30;30.40;44.10
12039;DHT22;6080;48.818;9.526;2022-08-21T16:30:56;29.90;46.00
12039;DHT22;6080;48.818;9.526;2022-08-21T16:33:38;29.50;46.50
12039;DHT22;6080;48.818;9.526;2022-08-21T16:36:06;29.10;44.10
12039;DHT22;6080;48.818;9.526;2022-08-21T16:38:34;28.80;46.60
12039;DHT22;6080;48.818;9.526;2022-08-21T16:41:04;28.50;48.60
12039;DHT22;6080;48.818;9.526;2022-08-21T16:43:30;28.20;47.50
12039;DHT22;6080;48.818;9.526;2022-08-21T16:45:57;27.90;49.10
12039;DHT22;6080;48.818;9.526;2022-08-21T16:48:24;27.60;48.00
12039;DHT22;6080;48.818;9.526;2022-08-21T16:50:51;27.50;48.00
12039;DHT22;6080;48.818;9.526;2022-08-21T16:53:17;27.40;46.80
12039;DHT22;6080;48.818;9.526;2022-08-21T16:55:43;27.30;45.70
12039;DHT22;6080;48.818;9.526;2022-08-21T16:58:17;27.30;47.80
12039;DHT22;6080;48.818;9.526;2022-08-21T17:00:44;27.10;47.20
12039;DHT22;6080;48.818;9.526;2022-08-21T17:03:14;27.10;46.90
12039;DHT22;6080;48.818;9.526;2022-08-21T17:05:42;27.00;50.30